createdAt,value
2022-12-01T00:01:59.130Z,102351.09
2022-12-01T00:06:10.774Z,102357.13
2022-12-01T00:10:27.304Z,102354.38
2022-12-01T00:14:28.763Z,102355.16
2022-12-01T00:18:30.176Z,102346.78
2022-12-01T00:22:31.705Z,102356.25
2022-12-01T00:26:33.134Z,102355.47
2022-12-01T00:30:34.567Z,102350.84
2022-12-01T00:34:37.825Z,102349.38
2022-12-01T00:38:39.363Z,102342.66
2022-12-01T00:42:40.941Z,102355.94
2022-12-01T00:46:42.387Z,102339.19
2022-12-01T00:50:44.539Z,102352.69
2022-12-01T00:54:46.331Z,102347.16
2022-12-01T00:58:47.743Z,102354.22
2022-12-01T01:02:49.200Z,102358.09
2022-12-01T01:06:51.030Z,102357.13
2022-12-01T01:10:52.458Z,102358.53
2022-12-01T01:14:54.131Z,102360.38
2022-12-01T01:18:55.849Z,102364.59
2022-12-01T01:22:57.702Z,102363.69
2022-12-01T01:26:59.258Z,102364.69
2022-12-01T01:31:05.570Z,102366.53
2022-12-01T01:35:08.190Z,102367.72
2022-12-01T01:39:09.658Z,102356.41
2022-12-01T01:43:16.267Z,102361.13
2022-12-01T01:47:31.426Z,102358.41
2022-12-01T01:51:37.532Z,102362.91
2022-12-01T01:55:39.144Z,102366.84
2022-12-01T01:59:48.388Z,102358.56
2022-12-01T02:03:52.367Z,102358.22
2022-12-01T02:07:57.106Z,102354.63
2022-12-01T02:12:11.471Z,102349.75
2022-12-01T02:16:25.858Z,102341.47
2022-12-01T02:20:36.094Z,102337.94
2022-12-01T02:24:46.429Z,102342.84
2022-12-01T02:29:29.320Z,102340.09
2022-12-01T02:33:42.541Z,102350.78
2022-12-01T02:37:54.871Z,102349.06
2022-12-01T02:42:07.847Z,102338.00
2022-12-01T02:46:15.535Z,102345.44
2022-12-01T02:50:17.589Z,102337.81
2022-12-01T02:54:20.273Z,102341.06
2022-12-01T02:58:21.918Z,102339.63
2022-12-01T03:02:42.334Z,102343.16
2022-12-01T03:07:11.998Z,102337.19
2022-12-01T03:11:27.090Z,102338.97
2022-12-01T03:15:33.943Z,102344.03
2022-12-01T03:19:44.387Z,102340.22
2022-12-01T03:23:50.467Z,102345.06
2022-12-01T03:28:20.327Z,102347.91
2022-12-01T03:32:31.731Z,102353.16
2022-12-01T03:36:42.516Z,102349.75
2022-12-01T03:40:48.369Z,102338.50
2022-12-01T03:44:55.452Z,102339.66
2022-12-01T03:48:57.038Z,102345.28
2022-12-01T03:53:11.543Z,102348.28
2022-12-01T03:57:25.715Z,102356.19
2022-12-01T04:01:32.725Z,102352.22
2022-12-01T04:05:35.120Z,102348.16
2022-12-01T04:09:36.553Z,102351.25
2022-12-01T04:13:37.961Z,102358.69
2022-12-01T04:17:40.065Z,102352.47
2022-12-01T04:21:41.586Z,102361.00
2022-12-01T04:25:43.038Z,102352.06
2022-12-01T04:29:44.477Z,102360.66
2022-12-01T04:33:45.906Z,102354.91
2022-12-01T04:37:47.341Z,102364.19
2022-12-01T04:41:48.906Z,102361.53
2022-12-01T04:45:50.330Z,102359.84
2022-12-01T04:49:52.205Z,102370.75
2022-12-01T04:53:53.715Z,102364.13
2022-12-01T04:57:55.171Z,102368.25
2022-12-01T05:01:56.672Z,102368.50
2022-12-01T05:06:06.901Z,102369.19
2022-12-01T05:10:08.727Z,102375.59
2022-12-01T05:14:10.229Z,102375.22
2022-12-01T05:18:11.773Z,102376.03
2022-12-01T05:22:13.213Z,102377.53
2022-12-01T05:26:14.693Z,102377.72
2022-12-01T05:30:16.303Z,102374.81
2022-12-01T05:34:17.869Z,102384.97
2022-12-01T05:38:19.799Z,102387.81
2022-12-01T05:42:21.298Z,102382.84
2022-12-01T05:46:22.847Z,102382.69
2022-12-01T05:50:25.386Z,102377.06
2022-12-01T05:54:29.803Z,102382.47
2022-12-01T05:58:31.291Z,102382.59
2022-12-01T06:02:32.791Z,102392.09
2022-12-01T06:06:34.206Z,102386.63
2022-12-01T06:10:35.647Z,102385.97
2022-12-01T06:14:37.072Z,102392.75
2022-12-01T06:18:41.758Z,102394.72
2022-12-01T06:22:43.227Z,102394.25
2022-12-01T06:26:44.642Z,102397.38
2022-12-01T06:30:46.133Z,102401.84
2022-12-01T06:34:47.582Z,102401.69
2022-12-01T06:38:49.054Z,102401.50
2022-12-01T06:42:50.593Z,102409.28
2022-12-01T06:46:52.947Z,102400.03
2022-12-01T06:50:57.487Z,102407.38
2022-12-01T06:55:00.148Z,102406.41
2022-12-01T06:59:01.840Z,102413.66
2022-12-01T07:03:03.490Z,102421.47
2022-12-01T07:07:05.853Z,102421.53
2022-12-01T07:11:10.219Z,102424.34
2022-12-01T07:15:11.678Z,102428.03
2022-12-01T07:19:13.170Z,102432.09
2022-12-01T07:23:14.710Z,102427.41
2022-12-01T07:27:16.157Z,102437.31
2022-12-01T07:31:19.062Z,102432.78
2022-12-01T07:35:20.588Z,102430.78
2022-12-01T07:39:22.018Z,102437.97
2022-12-01T07:43:23.474Z,102433.16
2022-12-01T07:47:24.927Z,102435.06
2022-12-01T07:51:27.301Z,102441.34
2022-12-01T07:55:28.724Z,102441.44
2022-12-01T07:59:30.134Z,102445.41
2022-12-01T08:03:31.629Z,102436.78
2022-12-01T08:07:33.126Z,102443.09
2022-12-01T08:11:35.820Z,102446.22
2022-12-01T08:15:37.279Z,102448.56
2022-12-01T08:19:38.818Z,102442.09
2022-12-01T08:23:42.118Z,102447.16
2022-12-01T08:27:43.541Z,102442.41
2022-12-01T08:31:45.046Z,102441.53
2022-12-01T08:35:46.538Z,102448.63
2022-12-01T08:39:48.200Z,102446.66
2022-12-01T08:43:57.907Z,102449.38
2022-12-01T08:48:00.157Z,102442.69
2022-12-01T08:52:01.622Z,102449.91
2022-12-01T08:56:07.366Z,102451.53
2022-12-01T09:00:09.351Z,102444.63
2022-12-01T09:04:10.914Z,102450.00
2022-12-01T09:08:30.757Z,102439.16
2022-12-01T09:12:32.364Z,102453.75
2022-12-01T09:16:33.912Z,102450.44
2022-12-01T09:20:35.504Z,102448.03
2022-12-01T09:24:37.210Z,102452.81
2022-12-01T09:28:38.952Z,102452.41
2022-12-01T09:32:40.362Z,102447.34
2022-12-01T09:36:41.873Z,102452.50
2022-12-01T09:40:43.802Z,102442.59
2022-12-01T09:44:57.595Z,102445.78
2022-12-01T09:49:02.663Z,102449.22
2022-12-01T09:53:08.256Z,102450.72
2022-12-01T09:57:26.819Z,102448.69
2022-12-01T10:01:39.252Z,102460.72
2022-12-01T10:06:25.213Z,102444.84
2022-12-01T10:10:18.309Z,102433.81
2022-12-01T10:14:21.072Z,102428.38
2022-12-01T10:18:47.713Z,102432.41
2022-12-01T10:22:49.135Z,102423.16
2022-12-01T10:27:22.362Z,102424.44
2022-12-01T10:31:36.941Z,102424.59
2022-12-01T10:35:40.120Z,102422.50
2022-12-01T10:39:44.472Z,102426.47
2022-12-01T10:43:50.251Z,102424.69
2022-12-01T10:48:07.927Z,102415.06
2022-12-01T10:52:28.086Z,102418.03
2022-12-01T10:56:31.954Z,102416.44
2022-12-01T11:05:03.250Z,102406.53
2022-12-01T11:09:19.170Z,102407.53
2022-12-01T11:13:36.668Z,102401.63
2022-12-01T11:17:42.510Z,102411.13
2022-12-01T11:21:47.958Z,102411.00
2022-12-01T11:26:12.871Z,102399.16
2022-12-01T11:30:22.467Z,102391.03
2022-12-01T11:34:30.716Z,102392.56
2022-12-01T11:38:34.554Z,102394.59
2022-12-01T11:42:37.035Z,102399.53
2022-12-01T11:46:50.070Z,102397.28
2022-12-01T11:51:09.864Z,102392.00
2022-12-01T11:55:11.277Z,102393.22
2022-12-01T11:59:26.552Z,102392.56
2022-12-01T12:03:46.506Z,102392.56
2022-12-01T12:08:01.129Z,102389.72
2022-12-01T12:12:31.021Z,102383.41
2022-12-01T12:16:38.591Z,102386.00
2022-12-01T12:20:53.652Z,102390.63
2022-12-01T12:25:27.848Z,102382.81
2022-12-01T12:29:46.055Z,102387.41
2022-12-01T12:34:06.281Z,102383.41
2022-12-01T12:38:13.603Z,102386.81
2022-12-01T12:42:23.619Z,102383.53
2022-12-01T12:46:52.290Z,102376.88
2022-12-01T12:50:59.603Z,102384.03
2022-12-01T12:55:08.460Z,102389.84
2022-12-01T12:59:21.937Z,102377.38
2022-12-01T13:03:49.168Z,102378.69
2022-12-01T13:08:03.186Z,102369.91
2022-12-01T13:12:09.813Z,102377.78
2022-12-01T13:16:17.302Z,102376.28
2022-12-01T13:20:25.128Z,102378.59
2022-12-01T13:24:30.353Z,102378.50
2022-12-01T13:28:40.866Z,102380.78
2022-12-01T13:32:43.099Z,102384.91
2022-12-01T13:36:50.371Z,102371.31
2022-12-01T13:41:27.125Z,102382.34
2022-12-01T13:45:37.372Z,102373.41
2022-12-01T13:49:50.260Z,102379.66
2022-12-01T13:54:04.812Z,102379.22
2022-12-01T13:58:06.805Z,102377.13
2022-12-01T14:02:21.218Z,102373.50
2022-12-01T14:06:31.607Z,102372.94
2022-12-01T14:10:33.373Z,102376.50
2022-12-01T14:14:39.230Z,102375.56
2022-12-01T14:18:49.055Z,102363.84
2022-12-01T14:23:18.975Z,102363.72
2022-12-01T14:27:43.002Z,102366.31
2022-12-01T14:31:46.348Z,102367.84
2022-12-01T14:35:47.998Z,102369.31
2022-12-01T14:39:49.402Z,102373.53
2022-12-01T14:44:05.995Z,102373.88
2022-12-01T14:48:18.457Z,102374.34
2022-12-01T14:52:29.150Z,102374.19
2022-12-01T14:56:32.971Z,102372.22
2022-12-01T15:00:37.815Z,102363.97
2022-12-01T15:05:09.590Z,102360.22
2022-12-01T15:13:48.440Z,102356.53
2022-12-01T15:17:50.686Z,102356.00
2022-12-01T15:21:52.145Z,102349.66
2022-12-01T15:25:54.926Z,102353.91
2022-12-01T15:29:58.602Z,102356.34
2022-12-01T15:34:00.312Z,102353.09
2022-12-01T15:38:02.662Z,102347.13
2022-12-01T15:42:04.800Z,102348.53
2022-12-01T15:46:18.146Z,102346.97
2022-12-01T15:50:45.985Z,102345.28
2022-12-01T15:54:49.903Z,102358.94
2022-12-01T15:58:51.827Z,102361.41
2022-12-01T16:02:58.406Z,102358.56
2022-12-01T16:07:09.306Z,102362.63
2022-12-01T16:11:17.839Z,102352.91
2022-12-01T16:15:22.786Z,102360.34
2022-12-01T16:19:28.265Z,102360.19
2022-12-01T16:23:32.283Z,102361.31
2022-12-01T16:27:45.053Z,102355.72
2022-12-01T16:32:12.715Z,102362.41
2022-12-01T16:36:08.839Z,102358.97
2022-12-01T16:40:12.621Z,102360.31
2022-12-01T16:44:28.433Z,102363.28
2022-12-01T16:48:31.325Z,102373.63
2022-12-01T16:52:48.280Z,102367.59
2022-12-01T16:56:49.832Z,102371.78
2022-12-01T17:00:54.845Z,102372.34
2022-12-01T17:04:56.526Z,102368.69
2022-12-01T17:08:57.948Z,102378.09
2022-12-01T17:12:59.392Z,102365.88
2022-12-01T17:17:00.997Z,102370.34
2022-12-01T17:21:08.375Z,102373.75
2022-12-01T17:25:09.940Z,102371.84
2022-12-01T17:29:11.344Z,102368.13
2022-12-01T17:33:12.888Z,102368.88
2022-12-01T17:37:20.531Z,102367.03
2022-12-01T17:41:44.559Z,102375.09
2022-12-01T17:45:46.075Z,102369.13
2022-12-01T17:49:47.678Z,102369.97
2022-12-01T17:53:49.208Z,102367.28
2022-12-01T17:57:50.825Z,102367.03
2022-12-01T18:01:52.337Z,102368.59
2022-12-01T18:05:55.747Z,102365.25
2022-12-01T18:09:57.225Z,102369.28
2022-12-01T18:14:00.349Z,102363.97
2022-12-01T18:18:01.863Z,102367.75
2022-12-01T18:22:03.451Z,102367.34
2022-12-01T18:26:10.800Z,102374.00
2022-12-01T18:30:15.523Z,102373.19
2022-12-01T18:34:17.027Z,102371.03
2022-12-01T18:38:20.087Z,102366.34
2022-12-01T18:42:21.700Z,102363.03
2022-12-01T18:46:25.847Z,102359.59
2022-12-01T18:50:27.327Z,102362.78
2022-12-01T18:54:29.091Z,102364.41
2022-12-01T18:58:31.785Z,102370.34
2022-12-01T19:02:33.368Z,102361.81
2022-12-01T19:06:36.730Z,102368.00
2022-12-01T19:10:38.286Z,102359.41
2022-12-01T19:14:39.750Z,102354.03
2022-12-01T19:18:58.829Z,102356.22
2022-12-01T19:23:00.375Z,102345.25
2022-12-01T19:27:01.898Z,102350.47
2022-12-01T19:31:15.535Z,102352.94
2022-12-01T19:35:19.225Z,102350.78
2022-12-01T19:39:20.826Z,102348.31
2022-12-01T19:43:25.191Z,102353.78
2022-12-01T19:47:30.042Z,102359.41
2022-12-01T19:51:37.426Z,102362.09
2022-12-01T19:55:42.122Z,102371.53
2022-12-01T19:59:46.353Z,102371.53
2022-12-01T20:03:52.647Z,102373.75
2022-12-01T20:07:54.232Z,102374.84
2022-12-01T20:11:55.770Z,102378.78
2022-12-01T20:16:07.653Z,102377.38
2022-12-01T20:20:10.832Z,102367.28
2022-12-01T20:24:25.081Z,102372.56
2022-12-01T20:28:26.950Z,102372.22
2022-12-01T20:32:29.656Z,102376.88
2022-12-01T20:36:31.408Z,102373.72
2022-12-01T20:40:32.923Z,102367.66
2022-12-01T20:44:36.469Z,102361.56
2022-12-01T20:48:37.984Z,102360.31
2022-12-01T20:52:40.756Z,102370.41
2022-12-01T20:56:42.250Z,102366.53
2022-12-01T21:00:46.691Z,102370.34
2022-12-01T21:04:48.561Z,102364.94
2022-12-01T21:08:50.667Z,102365.03
2022-12-01T21:13:16.356Z,102366.38
2022-12-01T21:17:29.790Z,102367.91
2022-12-01T21:21:34.940Z,102357.47
2022-12-01T21:25:41.485Z,102361.97
2022-12-01T21:29:50.537Z,102367.22
2022-12-01T21:33:52.152Z,102356.94
2022-12-01T21:38:03.207Z,102360.53
2022-12-01T21:42:16.646Z,102356.31
2022-12-01T21:46:18.818Z,102345.69
2022-12-01T21:50:24.282Z,102353.72
2022-12-01T21:54:25.857Z,102336.63
2022-12-01T21:58:31.251Z,102337.53
2022-12-01T22:03:08.041Z,102329.75
2022-12-01T22:07:12.773Z,102336.69
2022-12-01T22:11:32.385Z,102332.78
2022-12-01T22:15:40.708Z,102328.28
2022-12-01T22:19:46.704Z,102328.56
2022-12-01T22:24:18.360Z,102320.88
2022-12-01T22:28:25.198Z,102326.47
2022-12-01T22:32:48.373Z,102331.38
2022-12-01T22:36:51.211Z,102324.78
2022-12-01T22:41:06.498Z,102324.56
2022-12-01T22:45:24.571Z,102329.44
2022-12-01T22:49:26.222Z,102320.84
2022-12-01T22:53:31.275Z,102317.44
2022-12-01T22:57:34.867Z,102312.44
2022-12-01T23:01:43.154Z,102306.66
2022-12-01T23:05:45.360Z,102315.47
2022-12-01T23:09:47.087Z,102308.06
2022-12-01T23:13:48.617Z,102309.41
2022-12-01T23:17:50.391Z,102305.88
2022-12-01T23:21:52.824Z,102308.41
2022-12-01T23:25:54.501Z,102297.69
2022-12-01T23:29:55.953Z,102298.31
2022-12-01T23:33:57.394Z,102285.28
2022-12-01T23:37:58.913Z,102277.88
2022-12-01T23:42:00.378Z,102285.50
2022-12-01T23:46:06.575Z,102283.03
2022-12-01T23:50:18.564Z,102291.97
2022-12-01T23:54:33.199Z,102284.34
2022-12-01T23:58:34.817Z,102285.50
